createdAt,value
2022-12-09T00:00:53.734Z,80.40
2022-12-09T00:03:23.876Z,70.43
2022-12-09T00:05:50.938Z,74.93
2022-12-09T00:08:17.701Z,98.50
2022-12-09T00:10:45.417Z,71.20
2022-12-09T00:13:12.245Z,109.78
2022-12-09T00:15:42.771Z,101.90
2022-12-09T00:18:10.177Z,69.68
2022-12-09T00:20:36.814Z,72.15
2022-12-09T00:23:03.927Z,78.10
2022-12-09T00:25:30.758Z,97.18
2022-12-09T00:27:57.635Z,102.13
2022-12-09T00:30:24.441Z,80.68
2022-12-09T00:32:51.278Z,97.22
2022-12-09T00:35:17.960Z,95.65
2022-12-09T00:37:45.058Z,95.40
2022-12-09T00:40:12.948Z,89.90
2022-12-09T00:42:39.727Z,101.30
2022-12-09T00:45:07.753Z,102.97
2022-12-09T00:47:35.635Z,104.65
2022-12-09T00:50:02.738Z,97.85
2022-12-09T00:52:30.388Z,105.30
2022-12-09T00:54:57.368Z,89.82
2022-12-09T00:57:24.268Z,113.32
2022-12-09T00:59:50.925Z,110.68
2022-12-09T01:02:17.650Z,120.05
2022-12-09T01:04:44.634Z,98.45
2022-12-09T01:07:11.427Z,105.15
2022-12-09T01:09:39.660Z,110.65
2022-12-09T01:12:06.314Z,98.15
2022-12-09T01:14:33.164Z,115.78
2022-12-09T01:16:59.955Z,116.47
2022-12-09T01:19:27.528Z,124.18
2022-12-09T01:21:55.485Z,124.13
2022-12-09T01:24:22.804Z,194.80
2022-12-09T01:26:49.629Z,100.82
2022-12-09T01:29:16.396Z,108.90
2022-12-09T01:31:43.135Z,108.63
2022-12-09T01:34:10.230Z,130.90
2022-12-09T01:36:37.005Z,116.32
2022-12-09T01:39:04.386Z,116.53
2022-12-09T01:41:31.021Z,114.57
2022-12-09T01:44:18.946Z,125.93
2022-12-09T01:46:47.052Z,124.00
2022-12-09T01:49:38.589Z,116.47
2022-12-09T01:52:19.803Z,126.63
2022-12-09T01:54:48.050Z,136.48
2022-12-09T01:57:15.781Z,123.68
2022-12-09T01:59:43.662Z,125.43
2022-12-09T02:02:14.725Z,138.95
2022-12-09T02:04:45.574Z,132.45
2022-12-09T02:07:12.968Z,135.00
2022-12-09T02:09:41.602Z,121.50
2022-12-09T02:12:24.229Z,111.97
2022-12-09T02:14:59.052Z,107.97
2022-12-09T02:17:33.886Z,150.05
2022-12-09T02:20:29.228Z,143.40
2022-12-09T02:23:17.022Z,130.95
2022-12-09T02:25:48.703Z,171.48
2022-12-09T02:28:36.663Z,156.63
2022-12-09T02:31:31.209Z,187.13
2022-12-09T02:34:21.756Z,177.45
2022-12-09T02:37:08.680Z,164.05
2022-12-09T02:40:09.139Z,161.18
2022-12-09T02:42:40.149Z,151.00
2022-12-09T02:45:10.557Z,186.30
2022-12-09T02:47:46.499Z,148.70
2022-12-09T02:50:19.009Z,143.40
2022-12-09T02:52:47.402Z,174.13
2022-12-09T02:55:17.081Z,148.73
2022-12-09T02:57:44.135Z,159.13
2022-12-09T03:00:15.577Z,157.43
2022-12-09T03:02:52.887Z,171.93
2022-12-09T03:05:25.601Z,155.60
2022-12-09T03:08:35.649Z,189.77
2022-12-09T03:11:14.716Z,172.93
2022-12-09T03:13:41.291Z,168.88
2022-12-09T03:16:15.214Z,167.30
2022-12-09T03:18:47.801Z,159.43
2022-12-09T03:21:18.299Z,156.98
2022-12-09T03:23:46.261Z,200.93
2022-12-09T03:26:15.639Z,200.88
2022-12-09T03:28:47.790Z,210.05
2022-12-09T03:31:19.157Z,161.05
2022-12-09T03:33:50.543Z,170.10
2022-12-09T03:36:20.172Z,175.25
2022-12-09T03:38:49.036Z,152.02
2022-12-09T03:41:30.378Z,167.32
2022-12-09T03:44:17.585Z,169.63
2022-12-09T03:46:45.146Z,158.77
2022-12-09T03:49:12.303Z,160.50
2022-12-09T03:51:55.568Z,172.98
2022-12-09T03:54:34.757Z,176.93
2022-12-09T03:57:02.213Z,160.05
2022-12-09T03:59:31.311Z,163.65
2022-12-09T04:01:58.929Z,170.55
2022-12-09T04:04:27.076Z,171.05
2022-12-09T04:06:54.470Z,174.55
2022-12-09T04:09:21.823Z,163.30
2022-12-09T04:11:49.254Z,182.88
2022-12-09T04:14:16.546Z,164.63
2022-12-09T04:16:44.507Z,213.38
2022-12-09T04:19:11.301Z,177.02
2022-12-09T04:21:37.972Z,172.98
2022-12-09T04:24:04.971Z,168.18
2022-12-09T04:26:31.733Z,171.63
2022-12-09T04:28:58.731Z,175.60
2022-12-09T04:31:26.643Z,204.40
2022-12-09T04:33:53.571Z,184.88
2022-12-09T04:36:21.208Z,196.98
2022-12-09T04:38:48.437Z,221.90
2022-12-09T04:41:15.663Z,193.63
2022-12-09T04:43:42.643Z,176.85
2022-12-09T04:46:13.669Z,175.60
2022-12-09T04:48:41.337Z,178.32
2022-12-09T04:51:13.061Z,166.25
2022-12-09T04:53:40.278Z,151.93
2022-12-09T04:56:15.902Z,165.23
2022-12-09T04:58:44.960Z,169.63
2022-12-09T05:01:18.357Z,142.75
2022-12-09T05:03:52.441Z,147.15
2022-12-09T05:06:21.301Z,127.40
2022-12-09T05:08:48.583Z,173.90
2022-12-09T05:11:16.412Z,167.70
2022-12-09T05:13:43.716Z,175.95
2022-12-09T05:16:16.329Z,165.60
2022-12-09T05:18:45.051Z,156.18
2022-12-09T05:21:15.911Z,146.07
2022-12-09T05:23:43.072Z,157.73
2022-12-09T05:26:12.698Z,141.65
2022-12-09T05:28:39.639Z,170.48
2022-12-09T05:31:10.057Z,151.38
2022-12-09T05:33:37.731Z,171.48
2022-12-09T05:36:09.941Z,153.05
2022-12-09T05:38:37.052Z,102.82
2022-12-09T05:41:06.668Z,106.05
2022-12-09T05:43:34.115Z,117.57
2022-12-09T05:46:06.699Z,118.10
2022-12-09T05:48:34.491Z,131.20
2022-12-09T05:51:11.763Z,135.13
2022-12-09T05:53:38.586Z,136.32
2022-12-09T05:56:06.609Z,125.45
2022-12-09T05:58:34.329Z,139.43
2022-12-09T06:01:20.038Z,141.30
2022-12-09T06:03:52.255Z,133.70
2022-12-09T06:06:21.817Z,138.88
2022-12-09T06:08:49.486Z,114.47
2022-12-09T06:11:20.984Z,107.03
2022-12-09T06:13:49.135Z,117.38
2022-12-09T06:16:19.020Z,110.38
2022-12-09T06:18:47.574Z,95.85
2022-12-09T06:21:16.409Z,92.05
2022-12-09T06:23:43.628Z,91.45
2022-12-09T06:26:22.327Z,103.10
2022-12-09T06:28:49.531Z,86.13
2022-12-09T06:31:17.230Z,75.15
2022-12-09T06:34:00.052Z,79.38
2022-12-09T06:36:29.454Z,80.00
2022-12-09T06:39:03.091Z,98.15
2022-12-09T06:41:34.602Z,91.75
2022-12-09T06:44:01.542Z,86.20
2022-12-09T06:46:28.778Z,87.63
2022-12-09T06:48:56.616Z,86.20
2022-12-09T06:51:24.516Z,81.13
2022-12-09T06:53:52.179Z,88.88
2022-12-09T06:56:19.668Z,68.03
2022-12-09T06:58:47.663Z,80.13
2022-12-09T07:01:26.080Z,86.88
2022-12-09T07:03:55.669Z,81.35
2022-12-09T07:06:38.313Z,83.65
2022-12-09T07:09:12.394Z,80.32
2022-12-09T07:11:42.390Z,80.83
2022-12-09T07:14:10.965Z,84.57
2022-12-09T07:16:38.632Z,113.55
2022-12-09T07:19:06.586Z,77.25
2022-12-09T07:21:34.487Z,76.88
2022-12-09T07:24:02.975Z,83.25
2022-12-09T07:26:33.767Z,83.88
2022-12-09T07:29:05.187Z,87.97
2022-12-09T07:31:32.861Z,88.35
2022-12-09T07:34:01.124Z,82.60
2022-12-09T07:36:31.589Z,72.00
2022-12-09T07:39:05.476Z,80.72
2022-12-09T07:41:32.406Z,97.00
2022-12-09T07:43:59.881Z,103.70
2022-12-09T07:46:29.882Z,103.43
2022-12-09T07:48:57.833Z,105.68
2022-12-09T07:51:25.929Z,69.15
2022-12-09T07:53:53.729Z,97.35
2022-12-09T07:56:21.820Z,74.40
2022-12-09T07:58:51.293Z,78.35
2022-12-09T08:01:30.132Z,75.43
2022-12-09T08:03:58.143Z,64.25
2022-12-09T08:06:27.578Z,60.13
2022-12-09T08:08:59.529Z,67.78
2022-12-09T08:11:29.352Z,65.18
2022-12-09T08:13:58.330Z,69.63
2022-12-09T08:16:26.668Z,71.80
2022-12-09T08:18:54.885Z,80.88
2022-12-09T08:21:28.490Z,81.00
2022-12-09T08:23:56.992Z,76.93
2022-12-09T08:26:26.305Z,74.45
2022-12-09T08:28:53.582Z,71.93
2022-12-09T08:31:24.497Z,78.05
2022-12-09T08:33:52.437Z,77.32
2022-12-09T08:36:22.388Z,67.25
2022-12-09T08:38:50.162Z,75.90
2022-12-09T08:41:34.684Z,74.65
2022-12-09T08:44:08.886Z,75.07
2022-12-09T08:46:37.217Z,72.97
2022-12-09T08:49:05.651Z,79.90
2022-12-09T08:51:34.063Z,67.47
2022-12-09T08:54:02.466Z,72.05
2022-12-09T08:56:29.898Z,68.93
2022-12-09T08:58:57.293Z,64.85
2022-12-09T09:01:32.372Z,62.35
2022-12-09T09:04:02.704Z,62.22
2022-12-09T09:06:30.249Z,59.58
2022-12-09T09:08:58.460Z,63.03
2022-12-09T09:11:26.123Z,66.68
2022-12-09T09:13:53.167Z,68.15
2022-12-09T09:16:26.479Z,61.85
2022-12-09T09:18:53.598Z,61.35
2022-12-09T09:21:23.420Z,64.20
2022-12-09T09:23:50.998Z,58.28
2022-12-09T09:26:21.380Z,63.95
2022-12-09T09:28:49.512Z,55.58
2022-12-09T09:31:19.412Z,53.35
2022-12-09T09:33:47.081Z,56.60
2022-12-09T09:36:20.226Z,62.83
2022-12-09T09:38:48.428Z,52.42
2022-12-09T09:41:43.540Z,53.28
2022-12-09T09:44:23.210Z,51.20
2022-12-09T09:46:52.610Z,55.17
2022-12-09T09:49:45.525Z,65.10
2022-12-09T09:52:22.772Z,53.25
2022-12-09T09:54:51.326Z,59.60
2022-12-09T09:57:40.431Z,62.03
2022-12-09T10:00:37.343Z,58.40
2022-12-09T10:03:12.885Z,61.50
2022-12-09T10:05:40.254Z,55.33
2022-12-09T10:08:13.384Z,62.95
2022-12-09T10:10:52.880Z,63.85
2022-12-09T10:13:46.613Z,60.72
2022-12-09T10:16:19.041Z,67.35
2022-12-09T10:19:09.653Z,70.20
2022-12-09T10:21:41.093Z,53.42
2022-12-09T10:24:26.018Z,59.63
2022-12-09T10:27:08.429Z,59.28
2022-12-09T10:29:59.183Z,60.65
2022-12-09T10:32:30.093Z,59.10
2022-12-09T10:34:58.178Z,56.85
2022-12-09T10:37:27.715Z,52.15
2022-12-09T10:40:01.501Z,54.35
2022-12-09T10:42:49.867Z,52.60
2022-12-09T10:45:17.076Z,54.95
2022-12-09T10:47:50.573Z,60.47
2022-12-09T10:50:37.185Z,65.50
2022-12-09T10:53:07.720Z,81.57
2022-12-09T10:55:38.937Z,71.03
2022-12-09T10:58:15.854Z,58.30
2022-12-09T11:00:43.329Z,62.65
2022-12-09T11:03:30.538Z,81.38
2022-12-09T11:06:26.035Z,93.40
2022-12-09T11:11:50.425Z,51.15
2022-12-09T11:14:26.565Z,44.67
2022-12-09T11:16:57.246Z,43.45
2022-12-09T11:19:37.057Z,46.72
2022-12-09T11:22:13.758Z,43.47
2022-12-09T11:24:40.879Z,45.92
2022-12-09T11:27:51.005Z,44.88
2022-12-09T11:30:19.992Z,45.88
2022-12-09T11:32:56.701Z,53.92
2022-12-09T11:35:51.196Z,50.80
2022-12-09T11:38:38.658Z,51.03
2022-12-09T11:41:13.453Z,56.65
2022-12-09T11:43:47.735Z,55.15
2022-12-09T11:46:14.427Z,57.17
2022-12-09T11:48:49.365Z,96.78
2022-12-09T11:53:54.109Z,58.40
2022-12-09T11:56:28.259Z,82.32
2022-12-09T11:59:03.180Z,68.43
2022-12-09T12:04:20.025Z,77.70
2022-12-09T12:06:50.665Z,61.10
2022-12-09T12:09:23.514Z,75.40
2022-12-09T12:12:09.588Z,72.72
2022-12-09T12:14:40.397Z,62.10
2022-12-09T12:17:31.788Z,75.32
2022-12-09T12:19:59.444Z,75.05
2022-12-09T12:22:53.001Z,78.40
2022-12-09T12:25:42.969Z,74.28
2022-12-09T12:28:18.786Z,75.38
2022-12-09T12:31:40.109Z,82.65
2022-12-09T12:34:39.636Z,81.00
2022-12-09T12:37:23.967Z,76.47
2022-12-09T12:40:26.605Z,79.43
2022-12-09T12:43:31.799Z,81.50
2022-12-09T12:46:17.562Z,81.55
2022-12-09T12:49:15.650Z,73.82
2022-12-09T12:52:00.195Z,76.05
2022-12-09T12:54:35.829Z,77.35
2022-12-09T12:57:27.607Z,77.68
2022-12-09T13:00:11.092Z,84.35
2022-12-09T13:02:43.797Z,74.35
2022-12-09T13:05:39.527Z,83.30
2022-12-09T13:10:51.083Z,75.28
2022-12-09T13:13:24.664Z,90.32
2022-12-09T13:16:01.883Z,79.20
2022-12-09T13:18:38.656Z,83.13
2022-12-09T13:21:06.949Z,86.50
2022-12-09T13:24:03.857Z,67.05
2022-12-09T13:26:40.779Z,96.25
2022-12-09T13:29:13.492Z,70.10
2022-12-09T13:31:54.192Z,72.88
2022-12-09T13:34:38.020Z,71.03
2022-12-09T13:37:05.555Z,72.82
2022-12-09T13:39:41.492Z,74.93
2022-12-09T13:42:49.993Z,89.57
2022-12-09T13:45:28.462Z,83.03
2022-12-09T13:47:56.995Z,83.88
2022-12-09T13:50:32.983Z,84.88
2022-12-09T13:53:23.917Z,78.38
2022-12-09T13:56:02.071Z,77.30
2022-12-09T13:59:19.804Z,81.60
2022-12-09T14:01:54.726Z,73.03
2022-12-09T14:07:09.896Z,67.30
2022-12-09T14:09:49.552Z,63.45
2022-12-09T14:12:26.209Z,71.78
2022-12-09T14:14:54.831Z,62.25
2022-12-09T14:17:41.457Z,72.13
2022-12-09T14:20:17.259Z,60.80
2022-12-09T14:23:03.593Z,67.13
2022-12-09T14:25:33.472Z,64.45
2022-12-09T14:28:12.559Z,54.33
2022-12-09T14:30:56.280Z,56.17
2022-12-09T14:33:32.288Z,55.95
2022-12-09T14:36:20.179Z,58.33
2022-12-09T14:39:29.889Z,70.35
2022-12-09T14:42:07.436Z,63.47
2022-12-09T14:44:42.987Z,54.08
2022-12-09T14:47:24.650Z,51.75
2022-12-09T14:49:53.759Z,50.42
2022-12-09T14:52:30.689Z,52.92
2022-12-09T14:55:00.658Z,50.38
2022-12-09T14:57:34.169Z,61.03
2022-12-09T15:00:01.123Z,44.78
2022-12-09T15:02:30.734Z,49.92
2022-12-09T15:05:00.350Z,45.08
2022-12-09T15:07:32.171Z,55.15
2022-12-09T15:10:16.929Z,56.42
2022-12-09T15:12:53.938Z,54.58
2022-12-09T15:15:38.826Z,66.30
2022-12-09T15:18:06.975Z,68.63
2022-12-09T15:20:37.132Z,78.18
2022-12-09T15:23:21.504Z,74.88
2022-12-09T15:25:54.073Z,100.33
2022-12-09T15:28:26.577Z,51.53
2022-12-09T15:31:18.266Z,54.90
2022-12-09T15:33:51.239Z,46.40
2022-12-09T15:36:23.545Z,70.68
2022-12-09T15:38:56.475Z,96.95
2022-12-09T15:41:47.390Z,157.55
2022-12-09T15:44:17.911Z,51.95
2022-12-09T15:46:48.780Z,62.83
2022-12-09T15:49:20.176Z,90.00
2022-12-09T15:51:49.464Z,52.10
2022-12-09T15:54:20.768Z,50.13
2022-12-09T15:56:56.194Z,141.85
2022-12-09T15:59:31.312Z,46.28
2022-12-09T16:01:58.967Z,46.60
2022-12-09T16:04:29.964Z,45.47
2022-12-09T16:07:03.623Z,30.13
2022-12-09T16:09:30.320Z,29.33
2022-12-09T16:11:56.991Z,32.72
2022-12-09T16:14:24.666Z,34.00
2022-12-09T16:17:01.430Z,39.58
2022-12-09T16:19:31.053Z,39.38
2022-12-09T16:22:05.282Z,39.65
2022-12-09T16:24:57.877Z,32.67
2022-12-09T16:27:26.358Z,34.92
2022-12-09T16:30:04.229Z,29.80
2022-12-09T16:32:40.380Z,35.60
2022-12-09T16:35:10.148Z,37.22
2022-12-09T16:37:56.750Z,31.42
2022-12-09T16:40:23.474Z,32.20
2022-12-09T16:42:55.668Z,32.17
2022-12-09T16:45:37.329Z,37.90
2022-12-09T16:48:04.964Z,34.03
2022-12-09T16:50:34.461Z,40.65
2022-12-09T16:53:03.641Z,38.70
2022-12-09T16:55:31.849Z,68.57
2022-12-09T16:57:59.920Z,61.40
2022-12-09T17:00:26.620Z,40.00
2022-12-09T17:03:08.983Z,69.45
2022-12-09T17:05:35.676Z,73.53
2022-12-09T17:08:02.444Z,95.20
2022-12-09T17:10:29.213Z,97.68
2022-12-09T17:12:55.946Z,55.92
2022-12-09T17:15:22.717Z,75.53
2022-12-09T17:17:49.394Z,48.55
2022-12-09T17:20:16.356Z,45.45
2022-12-09T17:22:43.049Z,41.47
2022-12-09T17:25:10.368Z,49.78
2022-12-09T17:27:37.555Z,63.05
2022-12-09T17:30:04.998Z,53.55
2022-12-09T17:32:31.643Z,48.40
2022-12-09T17:34:58.358Z,45.20
2022-12-09T17:37:25.072Z,48.38
2022-12-09T17:39:57.102Z,57.33
2022-12-09T17:42:28.295Z,50.05
2022-12-09T17:44:55.009Z,49.63
2022-12-09T17:47:21.619Z,47.10
2022-12-09T17:49:48.348Z,40.88
2022-12-09T17:52:14.988Z,44.95
2022-12-09T17:54:41.639Z,42.55
2022-12-09T17:57:08.326Z,46.38
2022-12-09T17:59:35.108Z,43.65
2022-12-09T18:02:03.463Z,46.58
2022-12-09T18:04:31.448Z,46.35
2022-12-09T18:06:58.270Z,44.05
2022-12-09T18:09:24.961Z,57.45
2022-12-09T18:11:51.766Z,67.15
2022-12-09T18:14:20.317Z,52.95
2022-12-09T18:16:48.902Z,56.25
2022-12-09T18:19:17.240Z,72.50
2022-12-09T18:21:45.130Z,73.28
2022-12-09T18:24:12.177Z,66.30
2022-12-09T18:26:41.907Z,55.92
2022-12-09T18:29:09.828Z,62.60
2022-12-09T18:31:36.639Z,62.53
2022-12-09T18:34:03.336Z,65.50
2022-12-09T18:36:30.043Z,64.95
2022-12-09T18:39:00.267Z,65.60
2022-12-09T18:41:29.564Z,68.63
2022-12-09T18:43:58.230Z,70.30
2022-12-09T18:46:27.949Z,70.63
2022-12-09T18:48:59.869Z,71.50
2022-12-09T18:51:27.297Z,77.75
2022-12-09T18:53:56.062Z,68.22
2022-12-09T18:56:22.876Z,69.90
2022-12-09T18:59:06.046Z,68.60
2022-12-09T19:01:35.435Z,68.40
2022-12-09T19:04:03.847Z,72.05
2022-12-09T19:06:33.419Z,70.38
2022-12-09T19:09:03.404Z,75.55
2022-12-09T19:11:32.553Z,72.13
2022-12-09T19:13:59.727Z,68.40
2022-12-09T19:16:28.267Z,67.45
2022-12-09T19:18:55.068Z,66.38
2022-12-09T19:21:23.355Z,57.83
2022-12-09T19:23:50.487Z,58.90
2022-12-09T19:26:22.728Z,58.45
2022-12-09T19:28:54.963Z,64.05
2022-12-09T19:31:29.426Z,70.78
2022-12-09T19:34:01.725Z,71.05
2022-12-09T19:36:30.465Z,67.65
2022-12-09T19:39:01.435Z,64.78
2022-12-09T19:41:28.191Z,69.25
2022-12-09T19:43:56.664Z,77.88
2022-12-09T19:46:23.761Z,82.95
2022-12-09T19:48:50.412Z,76.78
2022-12-09T19:51:18.165Z,77.47
2022-12-09T19:53:45.364Z,76.43
2022-12-09T19:56:14.893Z,78.07
2022-12-09T19:58:42.386Z,69.63
2022-12-09T20:01:22.789Z,72.88
2022-12-09T20:03:51.806Z,75.63
2022-12-09T20:06:20.485Z,74.63
2022-12-09T20:08:47.996Z,80.78
2022-12-09T20:11:20.655Z,76.72
2022-12-09T20:13:48.093Z,80.72
2022-12-09T20:16:18.294Z,88.72
2022-12-09T20:18:46.615Z,79.88
2022-12-09T20:21:14.507Z,85.22
2022-12-09T20:23:42.768Z,86.25
2022-12-09T20:26:19.350Z,82.80
2022-12-09T20:28:48.143Z,75.65
2022-12-09T20:31:20.589Z,82.30
2022-12-09T20:33:47.997Z,80.88
2022-12-09T20:36:18.129Z,85.28
2022-12-09T20:38:48.762Z,87.22
2022-12-09T20:41:15.822Z,87.55
2022-12-09T20:43:44.554Z,87.47
2022-12-09T20:46:14.161Z,87.97
2022-12-09T20:48:41.878Z,79.38
2022-12-09T20:51:12.604Z,86.10
2022-12-09T20:53:42.042Z,83.13
2022-12-09T20:56:09.054Z,85.15
2022-12-09T20:58:37.301Z,88.88
2022-12-09T21:01:09.211Z,79.45
2022-12-09T21:03:36.002Z,76.95
2022-12-09T21:06:04.048Z,82.40
2022-12-09T21:08:31.977Z,80.03
2022-12-09T21:11:17.557Z,87.72
2022-12-09T21:13:47.191Z,78.22
2022-12-09T21:16:22.370Z,89.93
2022-12-09T21:18:50.673Z,83.57
2022-12-09T21:21:19.310Z,91.25
2022-12-09T21:23:46.127Z,84.80
2022-12-09T21:26:15.381Z,90.28
2022-12-09T21:28:44.160Z,85.28
2022-12-09T21:31:14.189Z,92.63
2022-12-09T21:33:42.588Z,92.38
2022-12-09T21:36:15.841Z,85.55
2022-12-09T21:38:42.993Z,80.80
2022-12-09T21:41:16.461Z,88.45
2022-12-09T21:43:43.873Z,85.88
2022-12-09T21:46:13.339Z,89.43
2022-12-09T21:48:40.891Z,84.32
2022-12-09T21:51:08.279Z,90.82
2022-12-09T21:53:35.162Z,88.28
2022-12-09T21:56:11.378Z,101.53
2022-12-09T21:58:38.588Z,94.90
2022-12-09T22:01:14.230Z,95.22
2022-12-09T22:03:42.039Z,92.22
2022-12-09T22:06:09.938Z,89.35
2022-12-09T22:08:37.886Z,96.25
2022-12-09T22:11:29.162Z,93.38
2022-12-09T22:13:58.064Z,105.40
2022-12-09T22:16:31.077Z,90.78
2022-12-09T22:18:59.141Z,91.82
2022-12-09T22:21:28.735Z,96.25
2022-12-09T22:23:58.503Z,88.18
2022-12-09T22:26:26.338Z,105.50
2022-12-09T22:28:53.450Z,116.05
2022-12-09T22:31:26.756Z,121.93
2022-12-09T22:33:55.949Z,184.00
2022-12-09T22:36:23.096Z,103.13
2022-12-09T22:38:50.807Z,100.45
2022-12-09T22:41:23.237Z,91.32
2022-12-09T22:43:50.469Z,94.50
2022-12-09T22:46:20.140Z,96.57
2022-12-09T22:48:47.451Z,98.80
2022-12-09T22:51:20.643Z,93.90
2022-12-09T22:53:51.928Z,98.63
2022-12-09T22:56:19.742Z,92.10
2022-12-09T22:58:46.577Z,88.60
2022-12-09T23:01:20.857Z,92.68
2022-12-09T23:03:47.815Z,94.80
2022-12-09T23:06:14.761Z,101.70
2022-12-09T23:08:43.067Z,97.53
2022-12-09T23:11:19.231Z,88.22
2022-12-09T23:13:46.608Z,100.35
2022-12-09T23:16:17.289Z,103.40
2022-12-09T23:18:44.675Z,97.90
2022-12-09T23:21:21.275Z,92.43
2022-12-09T23:23:48.106Z,98.20
2022-12-09T23:26:19.229Z,100.57
2022-12-09T23:28:49.923Z,102.75
2022-12-09T23:31:18.735Z,109.82
2022-12-09T23:33:47.311Z,105.40
2022-12-09T23:36:26.072Z,106.82
2022-12-09T23:38:53.841Z,102.72
2022-12-09T23:41:22.542Z,100.80
2022-12-09T23:43:50.123Z,118.25
2022-12-09T23:46:19.450Z,102.68
2022-12-09T23:48:47.522Z,99.30
2022-12-09T23:51:16.859Z,110.85
2022-12-09T23:53:45.018Z,103.82
2022-12-09T23:56:14.494Z,102.93
2022-12-09T23:58:41.805Z,101.57
